createdAt,value
2023-12-15T00:01:56.550Z,2.30
2023-12-15T00:04:23.187Z,2.05
2023-12-15T00:06:49.833Z,2.25
2023-12-15T00:09:16.685Z,1.92
2023-12-15T00:11:43.331Z,1.83
2023-12-15T00:14:10.303Z,2.40
2023-12-15T00:16:36.933Z,2.03
2023-12-15T00:19:04.387Z,2.75
2023-12-15T00:21:31.222Z,2.25
2023-12-15T00:23:57.951Z,1.60
2023-12-15T00:26:24.594Z,1.92
2023-12-15T00:28:51.267Z,1.77
2023-12-15T00:31:18.348Z,1.40
2023-12-15T00:33:45.043Z,1.42
2023-12-15T00:36:11.756Z,1.77
2023-12-15T00:38:38.422Z,2.17
2023-12-15T00:41:05.490Z,1.75
2023-12-15T00:43:32.178Z,1.70
2023-12-15T00:45:59.042Z,1.80
2023-12-15T00:48:25.722Z,1.88
2023-12-15T00:50:52.400Z,1.70
2023-12-15T00:53:19.131Z,2.45
2023-12-15T00:55:45.787Z,1.70
2023-12-15T00:58:12.468Z,2.90
2023-12-15T01:00:39.176Z,2.15
2023-12-15T01:03:06.184Z,2.28
2023-12-15T01:05:32.999Z,2.63
2023-12-15T01:07:59.765Z,3.15
2023-12-15T01:10:26.384Z,2.97
2023-12-15T01:12:52.967Z,2.38
2023-12-15T01:15:19.955Z,2.53
2023-12-15T01:17:46.640Z,2.08
2023-12-15T01:20:14.958Z,2.03
2023-12-15T01:22:41.661Z,1.80
2023-12-15T01:25:08.457Z,3.35
2023-12-15T01:27:35.792Z,1.70
2023-12-15T01:30:03.356Z,1.83
2023-12-15T01:32:30.052Z,1.85
2023-12-15T01:34:57.112Z,1.92
2023-12-15T01:37:23.798Z,1.73
2023-12-15T01:39:51.267Z,1.73
2023-12-15T01:42:17.893Z,1.50
2023-12-15T01:44:44.847Z,2.22
2023-12-15T01:47:15.107Z,1.60
2023-12-15T01:49:41.819Z,1.88
2023-12-15T01:52:08.503Z,1.90
2023-12-15T01:54:35.124Z,2.15
2023-12-15T01:57:01.922Z,2.55
2023-12-15T01:59:41.980Z,2.08
2023-12-15T02:02:08.845Z,2.03
2023-12-15T02:04:35.463Z,1.50
2023-12-15T02:07:02.157Z,2.00
2023-12-15T02:09:28.778Z,2.00
2023-12-15T02:11:55.357Z,2.55
2023-12-15T02:14:22.197Z,2.40
2023-12-15T02:16:48.871Z,2.28
2023-12-15T02:19:15.505Z,3.05
2023-12-15T02:21:42.115Z,2.20
2023-12-15T02:24:08.804Z,2.45
2023-12-15T02:26:35.499Z,2.15
2023-12-15T02:29:02.147Z,2.40
2023-12-15T02:31:28.759Z,2.40
2023-12-15T02:33:55.419Z,2.42
2023-12-15T02:36:23.508Z,1.92
2023-12-15T02:38:51.168Z,2.15
2023-12-15T02:41:18.070Z,2.13
2023-12-15T02:43:44.669Z,1.80
2023-12-15T02:46:11.277Z,1.80
2023-12-15T02:48:37.968Z,1.88
2023-12-15T02:51:04.861Z,1.88
2023-12-15T02:53:31.694Z,1.67
2023-12-15T02:55:58.337Z,1.98
2023-12-15T02:58:25.012Z,1.88
2023-12-15T03:00:51.633Z,1.98
2023-12-15T03:03:18.466Z,2.35
2023-12-15T03:05:45.179Z,1.55
2023-12-15T03:08:11.928Z,1.60
2023-12-15T03:10:38.519Z,1.70
2023-12-15T03:13:05.124Z,1.77
2023-12-15T03:15:31.737Z,1.67
2023-12-15T03:17:58.491Z,1.48
2023-12-15T03:20:25.200Z,1.52
2023-12-15T03:22:51.853Z,1.90
2023-12-15T03:25:18.503Z,1.50
2023-12-15T03:27:45.141Z,1.50
2023-12-15T03:30:12.247Z,1.77
2023-12-15T03:32:38.920Z,1.98
2023-12-15T03:35:06.013Z,2.60
2023-12-15T03:37:32.758Z,1.75
2023-12-15T03:39:59.396Z,1.30
2023-12-15T03:42:26.005Z,2.13
2023-12-15T03:44:52.661Z,1.95
2023-12-15T03:47:19.354Z,1.30
2023-12-15T03:49:46.770Z,1.77
2023-12-15T03:52:13.348Z,1.58
2023-12-15T03:54:39.984Z,1.50
2023-12-15T03:57:06.723Z,1.88
2023-12-15T03:59:33.470Z,1.63
2023-12-15T04:02:00.405Z,2.78
2023-12-15T04:04:27.042Z,1.65
2023-12-15T04:06:53.662Z,1.25
2023-12-15T04:09:20.292Z,1.65
2023-12-15T04:11:47.691Z,1.40
2023-12-15T04:14:14.384Z,1.52
2023-12-15T04:16:42.177Z,1.50
2023-12-15T04:19:09.357Z,1.50
2023-12-15T04:21:36.289Z,1.65
2023-12-15T04:24:02.999Z,1.40
2023-12-15T04:26:29.721Z,1.40
2023-12-15T04:28:56.452Z,1.33
2023-12-15T04:31:23.324Z,1.30
2023-12-15T04:33:49.976Z,1.55
2023-12-15T04:36:22.982Z,1.25
2023-12-15T04:38:49.930Z,1.55
2023-12-15T04:41:24.499Z,2.10
2023-12-15T04:43:51.922Z,1.45
2023-12-15T04:46:31.585Z,1.30
2023-12-15T04:49:00.798Z,1.42
2023-12-15T04:51:27.790Z,1.30
2023-12-15T04:53:54.615Z,1.42
2023-12-15T04:56:21.421Z,1.55
2023-12-15T04:58:48.418Z,2.90
2023-12-15T05:01:15.641Z,1.30
2023-12-15T05:03:43.537Z,1.40
2023-12-15T05:06:28.998Z,1.60
2023-12-15T05:08:57.113Z,1.20
2023-12-15T05:11:23.917Z,1.40
2023-12-15T05:13:50.682Z,1.30
2023-12-15T05:16:18.097Z,1.45
2023-12-15T05:18:44.870Z,1.30
2023-12-15T05:21:11.549Z,1.20
2023-12-15T05:23:38.209Z,1.65
2023-12-15T05:26:05.243Z,1.55
2023-12-15T05:28:31.887Z,1.35
2023-12-15T05:30:58.565Z,1.38
2023-12-15T05:33:25.567Z,1.58
2023-12-15T05:35:52.331Z,1.35
2023-12-15T05:38:19.127Z,1.50
2023-12-15T05:40:45.818Z,1.35
2023-12-15T05:43:12.579Z,1.40
2023-12-15T05:45:39.207Z,1.50
2023-12-15T05:48:06.451Z,1.30
2023-12-15T05:50:36.663Z,1.20
2023-12-15T05:53:03.864Z,1.20
2023-12-15T05:55:30.608Z,1.50
2023-12-15T05:57:57.205Z,1.40
2023-12-15T06:00:23.836Z,1.67
2023-12-15T06:02:50.508Z,1.20
2023-12-15T06:05:17.953Z,1.60
2023-12-15T06:07:44.731Z,1.10
2023-12-15T06:10:11.881Z,1.20
2023-12-15T06:12:38.667Z,1.70
2023-12-15T06:15:09.286Z,1.50
2023-12-15T06:17:36.345Z,1.50
2023-12-15T06:20:03.560Z,1.40
2023-12-15T06:22:30.235Z,1.35
2023-12-15T06:24:56.874Z,1.40
2023-12-15T06:27:23.526Z,1.40
2023-12-15T06:29:50.173Z,1.63
2023-12-15T06:32:17.283Z,1.40
2023-12-15T06:34:44.519Z,1.63
2023-12-15T06:37:11.386Z,1.40
2023-12-15T06:39:38.027Z,1.30
2023-12-15T06:42:04.894Z,1.42
2023-12-15T06:44:32.562Z,1.30
2023-12-15T06:46:59.451Z,1.58
2023-12-15T06:49:32.269Z,1.80
2023-12-15T06:52:00.698Z,1.38
2023-12-15T06:54:27.513Z,1.50
2023-12-15T06:56:54.239Z,1.33
2023-12-15T06:59:21.027Z,1.13
2023-12-15T07:01:47.756Z,1.35
2023-12-15T07:04:15.048Z,1.58
2023-12-15T07:06:41.910Z,1.50
2023-12-15T07:09:12.464Z,1.40
2023-12-15T07:11:41.209Z,1.40
2023-12-15T07:14:08.194Z,1.25
2023-12-15T07:16:34.927Z,1.77
2023-12-15T07:19:01.880Z,2.17
2023-12-15T07:21:28.675Z,2.22
2023-12-15T07:23:55.428Z,1.40
2023-12-15T07:26:22.508Z,1.40
2023-12-15T07:28:49.190Z,1.42
2023-12-15T07:31:15.925Z,2.22
2023-12-15T07:33:42.690Z,1.48
2023-12-15T07:36:11.019Z,1.40
2023-12-15T07:38:37.804Z,1.60
2023-12-15T07:41:06.451Z,1.52
2023-12-15T07:43:33.811Z,1.60
2023-12-15T07:46:00.497Z,2.75
2023-12-15T07:48:28.510Z,1.70
2023-12-15T07:50:55.907Z,1.70
2023-12-15T07:53:22.715Z,3.25
2023-12-15T07:55:49.780Z,1.70
2023-12-15T07:58:16.589Z,1.30
2023-12-15T08:00:43.372Z,5.35
2023-12-15T08:03:10.174Z,2.42
2023-12-15T08:05:37.211Z,1.92
2023-12-15T08:08:04.197Z,1.70
2023-12-15T08:10:32.167Z,1.60
2023-12-15T08:12:58.832Z,1.88
2023-12-15T08:15:25.489Z,2.45
2023-12-15T08:17:53.638Z,1.55
2023-12-15T08:20:20.491Z,1.50
2023-12-15T08:22:47.237Z,1.80
2023-12-15T08:25:13.876Z,1.80
2023-12-15T08:27:41.893Z,1.75
2023-12-15T08:30:10.114Z,1.77
2023-12-15T08:32:37.081Z,2.88
2023-12-15T08:35:05.142Z,1.73
2023-12-15T08:37:31.996Z,2.08
2023-12-15T08:39:58.645Z,1.50
2023-12-15T08:42:25.392Z,1.42
2023-12-15T08:44:52.206Z,1.58
2023-12-15T08:47:18.989Z,1.85
2023-12-15T08:49:45.666Z,1.70
2023-12-15T08:52:12.766Z,1.73
2023-12-15T08:54:39.474Z,1.70
2023-12-15T08:57:06.293Z,3.30
2023-12-15T08:59:33.032Z,1.88
2023-12-15T09:02:00.019Z,1.60
2023-12-15T09:04:26.718Z,2.00
2023-12-15T09:06:53.661Z,1.50
2023-12-15T09:09:23.529Z,1.75
2023-12-15T09:11:50.404Z,1.60
2023-12-15T09:14:17.651Z,2.00
2023-12-15T09:16:44.435Z,1.60
2023-12-15T09:19:11.271Z,1.60
2023-12-15T09:21:38.042Z,1.60
2023-12-15T09:24:05.105Z,1.95
2023-12-15T09:26:32.813Z,1.70
2023-12-15T09:28:59.573Z,1.63
2023-12-15T09:31:26.245Z,1.75
2023-12-15T09:33:53.056Z,1.83
2023-12-15T09:36:19.754Z,1.70
2023-12-15T09:38:46.393Z,1.42
2023-12-15T09:41:14.047Z,1.73
2023-12-15T09:43:41.056Z,1.60
2023-12-15T09:46:08.082Z,3.42
2023-12-15T09:48:36.187Z,2.03
2023-12-15T09:51:06.440Z,2.38
2023-12-15T09:53:36.562Z,3.22
2023-12-15T09:56:03.883Z,2.00
2023-12-15T09:58:30.732Z,1.70
2023-12-15T10:00:57.533Z,1.85
2023-12-15T10:03:24.818Z,2.33
2023-12-15T10:05:51.530Z,1.50
2023-12-15T10:08:24.259Z,1.90
2023-12-15T10:10:54.518Z,1.40
2023-12-15T10:13:21.186Z,1.45
2023-12-15T10:15:54.833Z,3.13
2023-12-15T10:18:29.342Z,2.20
2023-12-15T10:21:02.574Z,2.13
2023-12-15T10:23:30.808Z,1.50
2023-12-15T10:26:04.351Z,2.05
2023-12-15T10:28:39.795Z,1.70
2023-12-15T10:31:07.579Z,1.88
2023-12-15T10:33:35.406Z,1.90
2023-12-15T10:36:03.271Z,1.80
2023-12-15T10:38:32.913Z,1.80
2023-12-15T10:41:00.739Z,1.70
2023-12-15T10:43:28.841Z,1.90
2023-12-15T10:45:55.858Z,2.33
2023-12-15T10:48:22.618Z,2.40
2023-12-15T10:50:50.258Z,1.90
2023-12-15T10:53:17.386Z,2.10
2023-12-15T10:55:47.849Z,2.35
2023-12-15T10:58:15.136Z,2.08
2023-12-15T11:00:41.914Z,1.40
2023-12-15T11:03:11.986Z,2.10
2023-12-15T11:05:41.603Z,1.48
2023-12-15T11:08:08.915Z,1.70
2023-12-15T11:10:37.288Z,1.83
2023-12-15T11:13:04.014Z,1.52
2023-12-15T11:15:30.674Z,1.33
2023-12-15T11:18:01.280Z,1.40
2023-12-15T11:20:29.867Z,1.30
2023-12-15T11:23:06.227Z,1.35
2023-12-15T11:25:38.215Z,1.35
2023-12-15T11:28:17.500Z,1.30
2023-12-15T11:30:56.328Z,1.33
2023-12-15T11:33:33.583Z,1.70
2023-12-15T11:36:03.113Z,1.60
2023-12-15T11:38:30.769Z,1.55
2023-12-15T11:40:58.346Z,1.40
2023-12-15T11:43:25.390Z,1.50
2023-12-15T11:45:53.759Z,1.30
2023-12-15T11:48:20.995Z,1.52
2023-12-15T11:50:49.076Z,1.45
2023-12-15T11:53:16.554Z,1.60
2023-12-15T11:55:45.969Z,1.50
2023-12-15T11:58:16.550Z,1.40
2023-12-15T12:00:43.638Z,1.77
2023-12-15T12:03:14.891Z,1.20
2023-12-15T12:05:49.197Z,1.52
2023-12-15T12:08:16.277Z,2.22
2023-12-15T12:10:43.570Z,1.98
2023-12-15T12:13:11.958Z,1.40
2023-12-15T12:15:56.033Z,1.38
2023-12-15T12:18:25.621Z,1.67
2023-12-15T12:20:58.252Z,1.80
2023-12-15T12:23:35.503Z,1.90
2023-12-15T12:26:09.870Z,1.90
2023-12-15T12:28:50.390Z,1.80
2023-12-15T12:31:18.258Z,2.47
2023-12-15T12:33:45.499Z,1.70
2023-12-15T12:36:12.480Z,1.92
2023-12-15T12:38:39.308Z,2.08
2023-12-15T12:41:07.549Z,1.98
2023-12-15T12:43:35.214Z,2.05
2023-12-15T12:46:02.201Z,2.13
2023-12-15T12:48:31.560Z,2.38
2023-12-15T12:50:58.919Z,3.03
2023-12-15T12:53:26.722Z,2.08
2023-12-15T12:55:53.706Z,2.60
2023-12-15T12:58:20.415Z,2.20
2023-12-15T13:00:52.644Z,1.92
2023-12-15T13:03:20.662Z,2.33
2023-12-15T13:05:47.715Z,2.42
2023-12-15T13:08:15.476Z,1.95
2023-12-15T13:10:42.370Z,2.58
2023-12-15T13:13:09.793Z,2.10
2023-12-15T13:15:36.541Z,2.00
2023-12-15T13:18:03.763Z,2.03
2023-12-15T13:20:30.765Z,2.33
2023-12-15T13:22:58.801Z,1.95
2023-12-15T13:25:26.687Z,2.03
2023-12-15T13:27:53.456Z,1.80
2023-12-15T13:30:20.849Z,1.60
2023-12-15T13:32:49.465Z,1.70
2023-12-15T13:35:16.595Z,1.75
2023-12-15T13:37:44.291Z,1.70
2023-12-15T13:40:13.062Z,1.75
2023-12-15T13:42:40.303Z,1.80
2023-12-15T13:45:07.615Z,1.75
2023-12-15T13:47:34.853Z,1.58
2023-12-15T13:50:02.296Z,2.15
2023-12-15T13:52:29.339Z,1.73
2023-12-15T13:54:56.375Z,1.60
2023-12-15T13:57:23.098Z,1.50
2023-12-15T13:59:49.821Z,1.60
2023-12-15T14:02:16.543Z,1.45
2023-12-15T14:04:43.176Z,1.10
2023-12-15T14:07:09.823Z,1.60
2023-12-15T14:09:37.265Z,1.52
2023-12-15T14:12:04.388Z,1.42
2023-12-15T14:14:31.055Z,1.38
2023-12-15T14:16:57.865Z,1.30
2023-12-15T14:19:24.635Z,1.83
2023-12-15T14:21:51.300Z,1.77
2023-12-15T14:24:19.161Z,2.00
2023-12-15T14:26:46.727Z,1.40
2023-12-15T14:29:13.908Z,1.92
2023-12-15T14:31:40.582Z,1.80
2023-12-15T14:34:09.592Z,2.00
2023-12-15T14:36:37.127Z,2.22
2023-12-15T14:39:07.204Z,2.30
2023-12-15T14:41:36.590Z,2.10
2023-12-15T14:44:05.218Z,2.60
2023-12-15T14:46:32.949Z,1.95
2023-12-15T14:48:59.947Z,2.20
2023-12-15T14:51:27.020Z,2.00
2023-12-15T14:53:54.425Z,2.50
2023-12-15T14:56:21.937Z,2.50
2023-12-15T14:58:48.618Z,2.30
2023-12-15T15:01:15.475Z,2.47
2023-12-15T15:03:49.243Z,3.15
2023-12-15T15:06:27.054Z,3.03
2023-12-15T15:09:00.203Z,3.28
2023-12-15T15:11:27.740Z,2.65
2023-12-15T15:13:54.470Z,3.13
2023-12-15T15:16:21.152Z,4.55
2023-12-15T15:18:47.856Z,3.00
2023-12-15T15:21:14.639Z,3.15
2023-12-15T15:23:41.666Z,3.10
2023-12-15T15:26:09.809Z,4.15
2023-12-15T15:28:36.440Z,3.17
2023-12-15T15:31:03.199Z,3.28
2023-12-15T15:33:30.463Z,3.53
2023-12-15T15:35:57.391Z,2.47
2023-12-15T15:38:27.944Z,3.35
2023-12-15T15:40:54.957Z,3.08
2023-12-15T15:43:21.755Z,2.17
2023-12-15T15:45:48.680Z,2.40
2023-12-15T15:48:15.393Z,3.63
2023-12-15T15:50:42.215Z,2.50
2023-12-15T15:53:09.203Z,2.25
2023-12-15T15:55:35.903Z,2.20
2023-12-15T15:58:02.569Z,2.13
2023-12-15T16:00:29.260Z,3.08
2023-12-15T16:02:56.396Z,2.15
2023-12-15T16:05:23.398Z,2.10
2023-12-15T16:07:50.677Z,2.42
2023-12-15T16:10:17.845Z,2.38
2023-12-15T16:12:44.858Z,2.40
2023-12-15T16:15:11.678Z,2.08
2023-12-15T16:17:38.763Z,2.88
2023-12-15T16:20:07.868Z,2.60
2023-12-15T16:22:35.000Z,2.55
2023-12-15T16:25:01.795Z,2.95
2023-12-15T16:27:30.344Z,1.92
2023-12-15T16:29:58.942Z,1.90
2023-12-15T16:32:27.242Z,2.78
2023-12-15T16:34:53.889Z,2.00
2023-12-15T16:37:21.369Z,2.10
2023-12-15T16:39:48.106Z,1.85
2023-12-15T16:42:15.373Z,2.03
2023-12-15T16:44:52.380Z,2.03
2023-12-15T16:47:19.120Z,2.95
2023-12-15T16:49:46.399Z,2.33
2023-12-15T16:52:14.866Z,2.30
2023-12-15T16:54:41.884Z,2.35
2023-12-15T16:57:08.564Z,2.10
2023-12-15T16:59:38.461Z,2.28
2023-12-15T17:02:05.559Z,1.80
2023-12-15T17:04:32.319Z,1.33
2023-12-15T17:06:58.996Z,2.03
2023-12-15T17:09:28.683Z,1.77
2023-12-15T17:11:55.481Z,1.55
2023-12-15T17:14:22.144Z,2.15
2023-12-15T17:16:49.409Z,1.77
2023-12-15T17:19:16.176Z,1.45
2023-12-15T17:21:44.482Z,1.67
2023-12-15T17:24:11.132Z,2.13
2023-12-15T17:26:37.750Z,2.20
2023-12-15T17:29:04.417Z,1.85
2023-12-15T17:31:31.419Z,2.70
2023-12-15T17:33:58.179Z,1.88
2023-12-15T17:36:24.929Z,1.52
2023-12-15T17:38:51.613Z,2.20
2023-12-15T17:41:24.499Z,2.00
2023-12-15T17:43:51.227Z,1.65
2023-12-15T17:46:34.135Z,1.50
2023-12-15T17:49:01.584Z,1.95
2023-12-15T17:51:28.477Z,1.45
2023-12-15T17:53:55.156Z,1.40
2023-12-15T17:56:21.887Z,1.77
2023-12-15T17:58:48.578Z,1.45
2023-12-15T18:01:15.363Z,1.30
2023-12-15T18:03:42.116Z,1.30
2023-12-15T18:06:08.940Z,1.60
2023-12-15T18:08:35.577Z,1.50
2023-12-15T18:11:02.297Z,1.40
2023-12-15T18:13:28.956Z,1.33
2023-12-15T18:15:57.358Z,1.52
2023-12-15T18:18:24.136Z,1.45
2023-12-15T18:20:50.831Z,1.58
2023-12-15T18:23:17.449Z,1.58
2023-12-15T18:25:44.040Z,1.45
2023-12-15T18:28:16.973Z,1.50
2023-12-15T18:30:49.692Z,1.40
2023-12-15T18:33:16.638Z,1.55
2023-12-15T18:35:43.380Z,1.65
2023-12-15T18:38:09.986Z,1.40
2023-12-15T18:40:36.622Z,1.23
2023-12-15T18:43:04.320Z,1.60
2023-12-15T18:45:31.134Z,1.58
2023-12-15T18:47:58.069Z,1.33
2023-12-15T18:50:24.779Z,1.60
2023-12-15T18:52:51.544Z,1.35
2023-12-15T18:55:18.201Z,1.42
2023-12-15T18:57:49.556Z,1.35
2023-12-15T19:00:22.302Z,1.52
2023-12-15T19:02:50.321Z,1.20
2023-12-15T19:05:16.959Z,2.25
2023-12-15T19:07:45.084Z,1.70
2023-12-15T19:10:11.858Z,1.65
2023-12-15T19:12:38.741Z,2.20
2023-12-15T19:15:07.983Z,1.80
2023-12-15T19:17:34.711Z,1.42
2023-12-15T19:20:01.508Z,1.27
2023-12-15T19:22:28.176Z,1.25
2023-12-15T19:24:55.763Z,1.58
2023-12-15T19:27:22.589Z,1.23
2023-12-15T19:29:49.400Z,1.42
2023-12-15T19:32:16.020Z,1.75
2023-12-15T19:34:42.824Z,1.83
2023-12-15T19:37:09.972Z,2.13
2023-12-15T19:39:36.821Z,1.70
2023-12-15T19:42:03.654Z,1.70
2023-12-15T19:44:30.414Z,1.77
2023-12-15T19:46:57.110Z,1.83
2023-12-15T19:49:26.854Z,1.60
2023-12-15T19:51:55.415Z,1.58
2023-12-15T19:54:23.239Z,1.40
2023-12-15T19:56:49.891Z,1.30
2023-12-15T19:59:19.609Z,1.50
2023-12-15T20:01:47.533Z,1.20
2023-12-15T20:04:14.926Z,1.20
2023-12-15T20:06:41.660Z,1.20
2023-12-15T20:09:09.257Z,1.10
2023-12-15T20:11:39.284Z,1.20
2023-12-15T20:14:07.407Z,1.20
2023-12-15T20:16:35.233Z,1.10
2023-12-15T20:19:02.728Z,1.23
2023-12-15T20:21:30.185Z,1.10
2023-12-15T20:23:57.478Z,1.20
2023-12-15T20:26:24.072Z,1.20
2023-12-15T20:28:50.946Z,1.10
2023-12-15T20:31:18.084Z,1.10
2023-12-15T20:33:45.239Z,1.20
2023-12-15T20:36:19.017Z,1.05
2023-12-15T20:38:45.900Z,1.25
2023-12-15T20:41:20.375Z,1.15
2023-12-15T20:43:48.081Z,1.00
2023-12-15T20:46:15.009Z,1.25
2023-12-15T20:48:41.839Z,1.00
2023-12-15T20:51:10.096Z,0.90
2023-12-15T20:53:37.718Z,1.00
2023-12-15T20:56:04.956Z,1.30
2023-12-15T20:58:31.666Z,1.20
2023-12-15T21:00:58.340Z,1.00
2023-12-15T21:03:25.071Z,0.90
2023-12-15T21:05:51.905Z,0.85
2023-12-15T21:08:18.597Z,1.00
2023-12-15T21:10:45.700Z,1.00
2023-12-15T21:13:13.397Z,0.88
2023-12-15T21:15:43.282Z,0.90
2023-12-15T21:18:10.402Z,0.80
2023-12-15T21:20:37.382Z,0.85
2023-12-15T21:23:04.110Z,0.80
2023-12-15T21:25:30.766Z,1.00
2023-12-15T21:27:57.402Z,0.93
2023-12-15T21:30:25.141Z,1.00
2023-12-15T21:32:51.893Z,0.80
2023-12-15T21:35:18.594Z,0.90
2023-12-15T21:37:45.287Z,0.85
2023-12-15T21:40:12.253Z,0.85
2023-12-15T21:42:39.226Z,0.93
2023-12-15T21:45:06.459Z,0.80
2023-12-15T21:47:33.219Z,0.80
2023-12-15T21:50:01.412Z,0.80
2023-12-15T21:52:34.012Z,0.70
2023-12-15T21:55:01.937Z,1.00
2023-12-15T21:57:28.706Z,0.75
2023-12-15T21:59:55.435Z,1.00
2023-12-15T22:02:22.084Z,0.80
2023-12-15T22:04:48.758Z,0.90
2023-12-15T22:07:15.500Z,1.00
2023-12-15T22:09:42.138Z,0.95
2023-12-15T22:12:09.617Z,0.98
2023-12-15T22:14:42.627Z,0.90
2023-12-15T22:17:13.998Z,0.90
2023-12-15T22:19:41.053Z,0.70
2023-12-15T22:22:08.391Z,0.90
2023-12-15T22:24:35.281Z,0.70
2023-12-15T22:27:02.607Z,0.80
2023-12-15T22:29:29.279Z,0.80
2023-12-15T22:31:55.936Z,0.70
2023-12-15T22:34:22.702Z,0.73
2023-12-15T22:36:49.365Z,0.80
2023-12-15T22:39:16.056Z,0.80
2023-12-15T22:41:45.566Z,0.70
2023-12-15T22:44:12.874Z,0.70
2023-12-15T22:46:45.222Z,0.70
2023-12-15T22:49:12.035Z,0.70
2023-12-15T22:51:42.561Z,0.95
2023-12-15T22:54:13.642Z,0.93
2023-12-15T22:56:44.383Z,0.90
2023-12-15T22:59:14.139Z,0.82
2023-12-15T23:01:41.085Z,0.80
2023-12-15T23:04:08.758Z,0.80
2023-12-15T23:06:35.575Z,1.00
2023-12-15T23:09:02.194Z,0.90
2023-12-15T23:11:28.846Z,0.90
2023-12-15T23:13:55.449Z,0.90
2023-12-15T23:16:22.121Z,0.90
2023-12-15T23:18:49.152Z,1.20
2023-12-15T23:21:23.794Z,0.90
2023-12-15T23:23:55.285Z,1.00
2023-12-15T23:26:21.944Z,0.90
2023-12-15T23:28:48.772Z,0.90
2023-12-15T23:31:15.569Z,0.80
2023-12-15T23:33:42.313Z,0.90
2023-12-15T23:36:13.615Z,0.80
2023-12-15T23:38:41.148Z,0.90
2023-12-15T23:41:08.709Z,0.80
2023-12-15T23:43:35.429Z,0.80
2023-12-15T23:46:02.134Z,0.80
2023-12-15T23:48:28.927Z,0.90
2023-12-15T23:50:55.617Z,0.70
2023-12-15T23:53:22.248Z,0.80
2023-12-15T23:55:48.939Z,0.80
2023-12-15T23:58:15.628Z,0.80
